Time;durP1;ratioP1;P1;durP2;ratioP2;P2;SDS_P1;SDS_P2;PMS_P1;PMS_P2;Temp;Humidity;BMP_temperature;BMP_pressure;BME280_temperature;BME280_humidity;BME280_pressure;Samples;Min_cycle;Max_cycle;Signal;HPM_P1;HPM_P2
2023/07/19 00:01:30;;;;;;;3.03;0.90;;;16.90;99.90;;;;;;6236627;22;20236;-84
2023/07/19 00:03:56;;;;;;;3.92;0.70;;;17.00;99.90;;;;;;6234416;23;20003;-83
2023/07/19 00:06:23;;;;;;;4.43;0.90;;;16.90;99.90;;;;;;6235024;23;20050;-84
2023/07/19 00:08:49;;;;;;;5.63;0.98;;;16.90;99.90;;;;;;6234226;23;20119;-83
2023/07/19 00:11:15;;;;;;;2.80;0.70;;;16.90;99.90;;;;;;6233803;23;20040;-82
2023/07/19 00:13:40;;;;;;;2.78;0.55;;;16.90;99.90;;;;;;6236027;22;20008;-83
2023/07/19 00:16:06;;;;;;;3.63;0.85;;;16.90;99.90;;;;;;6235147;22;20306;-84
2023/07/19 00:18:31;;;;;;;2.90;0.70;;;16.90;99.90;;;;;;6234307;23;20004;-84
2023/07/19 00:20:57;;;;;;;5.30;1.05;;;16.80;99.90;;;;;;6234579;22;20039;-84
2023/07/19 00:23:22;;;;;;;5.40;0.80;;;16.80;99.90;;;;;;6234017;23;20038;-85
2023/07/19 00:25:48;;;;;;;5.22;1.15;;;16.80;99.90;;;;;;6233358;23;20004;-82
2023/07/19 00:28:14;;;;;;;3.50;0.60;;;16.80;99.90;;;;;;6234611;23;20015;-83
2023/07/19 00:30:39;;;;;;;2.72;0.90;;;16.90;99.90;;;;;;6233525;23;20012;-83
2023/07/19 00:33:05;;;;;;;4.82;0.88;;;16.90;99.90;;;;;;6234840;23;20810;-82
2023/07/19 00:35:32;;;;;;;4.15;0.82;;;16.90;99.90;;;;;;6233744;23;20130;-83
2023/07/19 00:37:58;;;;;;;6.75;1.23;;;17.00;99.90;;;;;;6236047;22;20376;-83
2023/07/19 00:40:23;;;;;;;3.92;0.82;;;17.00;99.90;;;;;;6232941;23;20019;-83
2023/07/19 00:42:56;;;;;;;2.97;0.98;;;16.90;99.90;;;;;;6234699;22;20011;-82
2023/07/19 00:45:21;;;;;;;5.07;1.17;;;17.00;99.90;;;;;;6233423;23;20051;-84
2023/07/19 00:47:47;;;;;;;2.97;0.70;;;16.90;99.90;;;;;;6237030;22;20031;-83
2023/07/19 00:50:13;;;;;;;4.55;1.00;;;16.90;99.90;;;;;;6234079;23;20491;-83
2023/07/19 00:52:39;;;;;;;4.00;0.80;;;16.90;99.90;;;;;;6233151;23;20103;-83
2023/07/19 00:55:06;;;;;;;6.47;1.00;;;16.90;99.90;;;;;;6233908;23;20001;-83
2023/07/19 00:57:32;;;;;;;5.97;1.05;;;16.90;99.90;;;;;;6234017;23;20012;-83
2023/07/19 00:59:57;;;;;;;6.38;1.08;;;17.00;99.90;;;;;;6234387;23;20073;-82
2023/07/19 01:02:23;;;;;;;4.00;0.90;;;17.00;99.90;;;;;;6233664;23;20305;-82
2023/07/19 01:04:49;;;;;;;2.50;0.75;;;17.10;99.90;;;;;;6236995;22;20014;-82
2023/07/19 01:07:16;;;;;;;7.45;1.25;;;17.10;99.90;;;;;;6234748;23;20432;-82
2023/07/19 01:09:42;;;;;;;7.10;1.02;;;17.10;99.90;;;;;;6234385;23;20054;-83
2023/07/19 01:12:08;;;;;;;3.38;1.08;;;17.10;99.90;;;;;;6235961;22;20000;-82
2023/07/19 01:14:34;;;;;;;4.05;1.10;;;17.10;99.90;;;;;;6235780;22;20035;-83
2023/07/19 01:17:00;;;;;;;4.63;1.13;;;17.10;99.90;;;;;;6235217;22;20000;-83
2023/07/19 01:19:26;;;;;;;3.80;1.33;;;17.10;99.90;;;;;;6233982;23;20629;-83
2023/07/19 01:21:55;;;;;;;3.85;1.00;;;17.10;99.90;;;;;;6233522;23;20009;-84
2023/07/19 01:24:20;;;;;;;2.35;0.77;;;17.10;99.90;;;;;;6234045;23;20047;-83
2023/07/19 01:26:47;;;;;;;4.05;1.13;;;17.10;99.90;;;;;;6233420;23;20198;-83
2023/07/19 01:29:12;;;;;;;2.70;0.80;;;17.10;99.90;;;;;;6234999;22;20019;-83
2023/07/19 01:31:38;;;;;;;3.90;0.80;;;17.10;99.90;;;;;;6234832;22;20015;-83
2023/07/19 01:34:04;;;;;;;5.00;1.10;;;17.10;99.90;;;;;;6232746;22;20389;-83
2023/07/19 01:36:29;;;;;;;7.80;0.90;;;17.10;99.90;;;;;;6230095;22;20102;-82
2023/07/19 01:38:55;;;;;;;4.60;1.00;;;17.10;99.90;;;;;;6230454;22;20004;-83
2023/07/19 01:41:21;;;;;;;3.22;1.02;;;17.00;99.90;;;;;;6229798;23;20008;-83
2023/07/19 01:43:46;;;;;;;4.25;0.90;;;17.00;99.90;;;;;;6229732;23;20032;-84
2023/07/19 01:46:12;;;;;;;7.65;0.95;;;17.00;99.90;;;;;;6231553;22;20455;-82
2023/07/19 01:48:38;;;;;;;5.53;1.10;;;17.00;99.90;;;;;;6230410;22;20043;-83
2023/07/19 01:51:05;;;;;;;2.45;1.00;;;16.90;99.90;;;;;;6230862;22;20007;-83
2023/07/19 01:53:31;;;;;;;5.07;1.20;;;16.90;99.90;;;;;;6232987;22;20467;-83
2023/07/19 01:55:57;;;;;;;8.18;1.17;;;16.90;99.90;;;;;;6230721;23;20000;-82
2023/07/19 01:58:23;;;;;;;4.00;1.20;;;16.80;99.90;;;;;;6232054;22;20000;-84
2023/07/19 02:00:48;;;;;;;6.68;1.30;;;16.80;99.90;;;;;;6233275;22;20016;-83
2023/07/19 02:03:14;;;;;;;5.78;1.50;;;16.80;99.90;;;;;;6231735;22;20031;-83
2023/07/19 02:05:40;;;;;;;5.47;1.08;;;16.70;99.90;;;;;;6229005;23;20025;-82
2023/07/19 02:08:06;;;;;;;4.40;1.00;;;16.70;99.90;;;;;;6229686;23;20008;-83
2023/07/19 02:10:31;;;;;;;6.22;1.05;;;16.70;99.90;;;;;;6233224;22;20237;-83
2023/07/19 02:12:57;;;;;;;5.65;1.30;;;16.60;99.90;;;;;;6230800;23;20047;-83
2023/07/19 02:15:23;;;;;;;6.85;1.10;;;16.50;99.90;;;;;;6232749;22;20023;-83
2023/07/19 02:17:48;;;;;;;4.10;1.27;;;16.40;99.90;;;;;;6233073;23;20008;-84
2023/07/19 02:20:19;;;;;;;3.85;1.10;;;16.20;99.90;;;;;;6232225;22;20125;-83
2023/07/19 02:22:45;;;;;;;4.70;1.20;;;16.10;99.90;;;;;;6233206;22;20011;-83
2023/07/19 02:25:11;;;;;;;3.70;1.10;;;15.90;99.90;;;;;;6232830;22;20288;-82
2023/07/19 02:27:36;;;;;;;3.90;1.17;;;15.80;99.90;;;;;;6230651;23;20001;-83
2023/07/19 02:30:03;;;;;;;6.03;1.50;;;15.70;99.90;;;;;;6232128;22;20031;-82
2023/07/19 02:32:28;;;;;;;4.07;1.10;;;15.50;99.90;;;;;;6232256;22;20075;-82
2023/07/19 02:34:54;;;;;;;2.15;1.10;;;15.50;99.90;;;;;;6230079;23;20047;-82
2023/07/19 02:37:20;;;;;;;5.32;1.38;;;15.40;99.90;;;;;;6233154;22;20004;-83
2023/07/19 02:39:45;;;;;;;4.30;1.20;;;15.40;99.90;;;;;;6232609;22;20095;-82
2023/07/19 02:42:11;;;;;;;4.10;1.35;;;15.30;99.90;;;;;;6231773;23;20004;-83
2023/07/19 02:44:36;;;;;;;4.00;1.40;;;15.40;99.90;;;;;;6235316;22;20095;-82
2023/07/19 02:47:02;;;;;;;3.63;1.40;;;15.40;99.90;;;;;;6233014;23;20066;-83
2023/07/19 02:49:27;;;;;;;4.30;1.10;;;15.50;99.90;;;;;;6235276;22;20004;-83
2023/07/19 02:51:53;;;;;;;8.32;1.80;;;15.50;99.90;;;;;;6232380;23;20012;-82
2023/07/19 02:54:19;;;;;;;5.25;1.23;;;15.60;99.90;;;;;;6234814;22;20004;-83
2023/07/19 02:56:44;;;;;;;7.13;1.27;;;15.70;99.90;;;;;;6233368;22;20011;-83
2023/07/19 02:59:10;;;;;;;4.60;1.45;;;15.70;99.90;;;;;;6233585;23;20410;-83
2023/07/19 03:01:41;;;;;;;2.80;1.30;;;15.80;99.90;;;;;;6234909;22;20008;-83
2023/07/19 03:04:07;;;;;;;4.72;1.23;;;15.80;99.90;;;;;;6234206;22;20515;-83
2023/07/19 03:06:32;;;;;;;5.20;1.52;;;15.80;99.90;;;;;;6234871;22;20040;-83
2023/07/19 03:08:58;;;;;;;5.55;1.52;;;15.80;99.90;;;;;;6233477;23;20039;-83
2023/07/19 03:11:23;;;;;;;7.93;1.80;;;15.80;99.90;;;;;;6235917;22;20023;-82
2023/07/19 03:13:49;;;;;;;5.15;1.70;;;15.90;99.90;;;;;;6233103;23;20011;-83
2023/07/19 03:16:14;;;;;;;3.40;1.35;;;15.90;99.90;;;;;;6233371;23;20091;-82
2023/07/19 03:18:40;;;;;;;10.90;1.95;;;16.00;99.90;;;;;;6229635;23;20018;-83
2023/07/19 03:21:06;;;;;;;5.47;1.63;;;16.00;99.90;;;;;;6232081;22;20008;-82
2023/07/19 03:23:31;;;;;;;4.28;1.60;;;16.10;99.90;;;;;;6231845;22;20000;-84
2023/07/19 03:25:58;;;;;;;4.60;1.35;;;16.10;99.90;;;;;;6230594;23;20019;-84
2023/07/19 03:28:25;;;;;;;5.90;1.80;;;16.20;99.90;;;;;;6232323;22;20075;-82
2023/07/19 03:30:54;;;;;;;7.65;1.80;;;16.20;99.90;;;;;;6233662;22;20339;-83
2023/07/19 03:33:23;;;;;;;4.47;1.88;;;16.20;99.90;;;;;;6232074;23;20031;-82
2023/07/19 03:35:49;;;;;;;6.30;1.63;;;16.20;99.90;;;;;;6233395;22;20531;-82
2023/07/19 03:38:18;;;;;;;6.68;1.98;;;16.30;99.90;;;;;;6233116;22;20007;-82
2023/07/19 03:40:44;;;;;;;3.38;1.60;;;16.30;99.90;;;;;;6233638;22;20012;-82
2023/07/19 03:43:10;;;;;;;8.13;1.70;;;16.40;99.90;;;;;;6233599;22;20510;-83
2023/07/19 03:45:36;;;;;;;5.45;1.90;;;16.40;99.90;;;;;;6234794;22;20011;-82
2023/07/19 03:48:02;;;;;;;7.32;1.98;;;16.40;99.90;;;;;;6233883;22;20000;-83
2023/07/19 03:50:28;;;;;;;8.82;2.45;;;16.40;99.90;;;;;;6233895;22;20010;-83
2023/07/19 03:52:53;;;;;;;9.43;2.38;;;16.50;99.90;;;;;;6234013;22;20005;-83
2023/07/19 03:55:19;;;;;;;7.68;2.38;;;16.50;99.90;;;;;;6232188;23;20131;-82
2023/07/19 03:57:45;;;;;;;8.05;2.30;;;16.50;99.90;;;;;;6231462;23;20011;-83
2023/07/19 04:00:11;;;;;;;6.05;2.25;;;16.50;99.90;;;;;;6233111;22;20012;-83
2023/07/19 04:02:37;;;;;;;5.20;2.20;;;16.50;99.90;;;;;;6233586;22;19997;-83
2023/07/19 04:05:02;;;;;;;7.60;2.13;;;16.50;99.90;;;;;;6231613;22;20008;-82
2023/07/19 04:07:28;;;;;;;8.55;2.60;;;16.50;99.90;;;;;;6234487;22;20004;-82
2023/07/19 04:09:54;;;;;;;6.63;2.33;;;16.60;99.90;;;;;;6232497;23;20082;-83
2023/07/19 04:12:19;;;;;;;8.80;2.55;;;16.60;99.90;;;;;;6233953;22;20077;-82
2023/07/19 04:14:45;;;;;;;7.80;2.70;;;16.60;99.90;;;;;;6231094;23;20093;-83
2023/07/19 04:17:11;;;;;;;5.72;2.60;;;16.60;99.90;;;;;;6235406;22;20007;-83
2023/07/19 04:19:37;;;;;;;10.55;2.47;;;16.50;99.90;;;;;;6232697;22;20637;-82
2023/07/19 04:22:03;;;;;;;6.13;2.20;;;16.60;99.90;;;;;;6235853;23;20012;-83
2023/07/19 04:24:29;;;;;;;7.68;2.40;;;16.60;99.90;;;;;;6236491;23;20782;-83
2023/07/19 04:26:55;;;;;;;7.78;2.20;;;16.60;99.90;;;;;;6235310;23;20083;-82
2023/07/19 04:29:21;;;;;;;7.18;2.05;;;16.70;99.90;;;;;;6234930;22;20050;-83
2023/07/19 04:31:47;;;;;;;7.68;2.13;;;16.70;99.90;;;;;;6235112;22;20000;-82
2023/07/19 04:34:12;;;;;;;6.65;2.22;;;16.70;99.90;;;;;;6235017;22;20407;-82
2023/07/19 04:36:38;;;;;;;5.05;2.45;;;16.80;99.90;;;;;;6235999;22;20064;-82
2023/07/19 04:39:03;;;;;;;6.35;2.25;;;16.80;99.90;;;;;;6233893;23;20008;-83
2023/07/19 04:41:29;;;;;;;6.85;2.30;;;16.80;99.90;;;;;;6235765;22;20011;-83
2023/07/19 04:43:55;;;;;;;6.10;1.95;;;16.80;99.90;;;;;;6234586;22;20054;-83
2023/07/19 04:46:21;;;;;;;7.88;2.22;;;16.90;99.90;;;;;;6235603;22;20011;-83
2023/07/19 04:48:47;;;;;;;6.35;1.90;;;16.90;99.90;;;;;;6235600;22;20004;-83
2023/07/19 04:51:13;;;;;;;6.18;2.35;;;16.90;99.90;;;;;;6234288;22;20073;-83
2023/07/19 04:53:38;;;;;;;5.80;2.22;;;16.80;99.90;;;;;;6235891;22;20559;-81
2023/07/19 04:56:04;;;;;;;5.60;2.22;;;16.80;99.90;;;;;;6235902;22;20011;-83
2023/07/19 04:58:29;;;;;;;5.88;2.10;;;16.90;99.90;;;;;;6233538;23;20004;-82
2023/07/19 05:00:55;;;;;;;9.30;2.30;;;16.90;99.90;;;;;;6234155;22;20030;-83
2023/07/19 05:03:22;;;;;;;5.53;2.03;;;17.00;99.90;;;;;;6236208;22;20409;-82
2023/07/19 05:05:47;;;;;;;5.53;2.20;;;17.00;99.90;;;;;;6233200;23;20112;-82
2023/07/19 05:08:13;;;;;;;6.18;2.10;;;17.10;99.90;;;;;;6235172;22;20028;-83
2023/07/19 05:10:40;;;;;;;6.13;1.73;;;17.10;99.90;;;;;;6234766;22;20043;-83
2023/07/19 05:13:05;;;;;;;5.57;2.42;;;17.20;99.90;;;;;;6233830;23;20004;-82
2023/07/19 05:15:32;;;;;;;4.53;2.25;;;17.20;99.90;;;;;;6234831;22;20019;-83
2023/07/19 05:18:00;;;;;;;8.45;2.25;;;17.20;99.90;;;;;;6235748;22;20008;-83
2023/07/19 05:20:26;;;;;;;8.95;2.20;;;17.30;99.90;;;;;;6235778;22;20015;-82
2023/07/19 05:22:51;;;;;;;9.27;2.38;;;17.40;99.90;;;;;;6235660;22;20332;-82
2023/07/19 05:25:17;;;;;;;9.70;2.20;;;17.40;99.90;;;;;;6234186;23;20004;-83
2023/07/19 05:27:43;;;;;;;5.72;2.03;;;17.50;99.90;;;;;;6236035;23;20435;-83
2023/07/19 05:30:09;;;;;;;7.15;2.20;;;17.60;99.90;;;;;;6237360;22;20015;-83
2023/07/19 05:32:35;;;;;;;5.60;2.17;;;17.60;99.90;;;;;;6236096;22;20000;-83
2023/07/19 05:35:00;;;;;;;9.45;2.40;;;17.70;99.90;;;;;;6235188;22;20004;-83
2023/07/19 05:37:27;;;;;;;6.57;1.88;;;17.70;99.90;;;;;;6233965;23;20092;-83
2023/07/19 05:39:53;;;;;;;6.43;2.10;;;17.80;99.90;;;;;;6236206;22;20004;-82
2023/07/19 05:42:19;;;;;;;6.68;1.88;;;17.90;99.90;;;;;;6235186;22;20043;-82
2023/07/19 05:44:44;;;;;;;5.53;1.83;;;18.00;99.90;;;;;;6232921;23;20019;-82
2023/07/19 05:47:10;;;;;;;7.40;2.13;;;18.10;99.90;;;;;;6237037;22;20016;-84
2023/07/19 05:49:36;;;;;;;9.27;2.30;;;18.20;99.90;;;;;;6238145;22;20413;-82
2023/07/19 05:52:01;;;;;;;5.07;2.08;;;18.20;99.90;;;;;;6234644;23;20023;-83
2023/07/19 05:54:27;;;;;;;6.85;2.40;;;18.20;99.90;;;;;;6236305;22;20000;-83
2023/07/19 05:56:52;;;;;;;7.45;2.17;;;18.30;99.90;;;;;;6238323;22;20015;-83
2023/07/19 05:59:18;;;;;;;8.95;2.10;;;18.30;99.90;;;;;;6237033;22;20087;-83
2023/07/19 06:01:44;;;;;;;7.60;2.65;;;18.40;99.90;;;;;;6239101;22;20011;-83
2023/07/19 06:04:10;;;;;;;9.27;2.40;;;18.60;99.90;;;;;;6238370;22;20008;-83
2023/07/19 06:06:35;;;;;;;24.08;14.30;;;18.70;99.90;;;;;;6238423;23;20000;-81
2023/07/19 06:09:05;;;;;;;39.88;25.70;;;18.80;99.90;;;;;;6240066;23;20107;-83
2023/07/19 06:11:32;;;;;;;7.63;3.28;;;18.90;99.90;;;;;;6236551;22;20436;-82
2023/07/19 06:13:57;;;;;;;7.20;2.60;;;19.00;99.90;;;;;;6235165;22;20096;-83
2023/07/19 06:16:23;;;;;;;5.80;2.08;;;19.20;99.90;;;;;;6235712;22;20004;-82
2023/07/19 06:18:49;;;;;;;5.38;2.03;;;19.40;99.90;;;;;;6235877;23;20075;-84
2023/07/19 06:21:14;;;;;;;7.28;2.40;;;19.50;99.90;;;;;;6235005;23;20106;-83
2023/07/19 06:23:41;;;;;;;9.10;2.08;;;19.60;99.90;;;;;;6236414;22;20000;-82
2023/07/19 06:26:07;;;;;;;17.48;9.35;;;19.60;99.90;;;;;;6237074;22;20136;-84
2023/07/19 06:28:33;;;;;;;22.33;10.98;;;19.70;99.90;;;;;;6235695;22;20007;-81
2023/07/19 06:30:59;;;;;;;5.40;2.22;;;19.90;99.90;;;;;;6233897;23;20362;-84
2023/07/19 06:33:25;;;;;;;10.27;3.10;;;20.00;99.90;;;;;;6233310;22;20018;-84
2023/07/19 06:35:51;;;;;;;7.13;2.58;;;20.10;99.90;;;;;;6236524;22;20035;-85
2023/07/19 06:38:16;;;;;;;5.63;2.10;;;20.30;99.90;;;;;;6234865;23;20114;-83
2023/07/19 06:40:42;;;;;;;28.27;24.02;;;20.40;99.90;;;;;;6235855;23;20031;-83
2023/07/19 06:43:09;;;;;;;25.40;15.05;;;20.60;99.90;;;;;;6235848;23;20015;-82
2023/07/19 06:45:35;;;;;;;4.03;2.28;;;20.80;99.90;;;;;;6234709;23;20050;-84
2023/07/19 06:48:01;;;;;;;6.45;2.00;;;20.90;99.90;;;;;;6235361;23;20107;-85
2023/07/19 06:50:26;;;;;;;6.60;1.92;;;20.80;99.90;;;;;;6236412;22;20621;-84
2023/07/19 06:52:52;;;;;;;6.03;2.10;;;20.90;99.90;;;;;;6236034;23;20105;-84
2023/07/19 06:55:17;;;;;;;7.18;1.95;;;21.00;99.90;;;;;;6234580;23;20440;-84
2023/07/19 06:57:43;;;;;;;188.20;111.80;;;21.10;99.90;;;;;;6234364;23;20095;-85
2023/07/19 07:00:09;;;;;;;9.65;4.57;;;21.40;99.90;;;;;;6235574;22;20024;-82
2023/07/19 07:02:34;;;;;;;5.35;1.90;;;21.50;99.90;;;;;;6236319;22;20032;-84
2023/07/19 07:05:00;;;;;;;5.60;2.13;;;21.70;99.90;;;;;;6237049;22;20039;-83
2023/07/19 07:07:26;;;;;;;5.07;1.85;;;22.10;99.90;;;;;;6235455;23;20004;-83
2023/07/19 07:09:53;;;;;;;5.97;2.15;;;22.50;99.90;;;;;;6235361;23;20091;-83
2023/07/19 07:12:18;;;;;;;4.53;2.03;;;22.70;99.90;;;;;;6233993;23;20032;-83
2023/07/19 07:14:44;;;;;;;5.85;2.00;;;22.80;99.90;;;;;;6233442;22;20432;-82
2023/07/19 07:17:10;;;;;;;6.25;1.90;;;22.90;99.90;;;;;;6231477;23;20043;-83
2023/07/19 07:19:35;;;;;;;4.75;1.88;;;22.50;99.90;;;;;;6232028;23;20015;-82
2023/07/19 07:22:01;;;;;;;3.65;1.65;;;22.20;99.90;;;;;;6233613;22;20012;-85
2023/07/19 07:24:26;;;;;;;3.35;1.83;;;22.30;99.90;;;;;;6231888;23;20640;-83
2023/07/19 07:26:52;;;;;;;6.88;1.60;;;22.00;99.90;;;;;;6235977;22;20083;-81
2023/07/19 07:29:17;;;;;;;6.18;2.05;;;21.90;99.90;;;;;;6233144;23;20428;-85
2023/07/19 07:31:43;;;;;;;5.07;1.90;;;22.00;99.90;;;;;;6232499;22;20008;-84
2023/07/19 07:34:09;;;;;;;3.17;1.63;;;22.20;99.90;;;;;;6230653;22;20083;-84
2023/07/19 07:36:35;;;;;;;5.15;1.75;;;22.30;99.90;;;;;;6231817;22;20407;-83
2023/07/19 07:39:02;;;;;;;8.05;2.03;;;22.50;99.90;;;;;;6230303;23;20008;-85
2023/07/19 07:41:27;;;;;;;4.05;1.63;;;22.60;99.90;;;;;;6234700;23;20022;-83
2023/07/19 07:43:53;;;;;;;7.57;1.70;;;22.30;99.90;;;;;;6233604;22;20149;-83
2023/07/19 07:46:18;;;;;;;8.70;2.00;;;22.20;99.90;;;;;;6235227;22;20019;-85
2023/07/19 07:48:44;;;;;;;4.85;1.55;;;22.50;99.90;;;;;;6232889;23;20095;-83
2023/07/19 07:51:11;;;;;;;4.53;1.85;;;22.80;99.90;;;;;;6233350;22;20008;-82
2023/07/19 07:53:36;;;;;;;5.65;1.48;;;23.10;99.90;;;;;;6234013;22;20083;-82
2023/07/19 07:56:02;;;;;;;5.50;1.65;;;23.10;99.90;;;;;;6232052;22;20090;-84
2023/07/19 07:58:28;;;;;;;6.40;1.80;;;23.30;99.90;;;;;;6232808;22;20011;-84
2023/07/19 08:00:54;;;;;;;4.82;1.60;;;23.50;99.90;;;;;;6231257;23;20012;-83
2023/07/19 08:03:19;;;;;;;4.80;1.38;;;24.00;99.90;;;;;;6232302;22;20011;-81
2023/07/19 08:05:45;;;;;;;5.50;1.92;;;24.60;99.90;;;;;;6234482;22;20071;-79
2023/07/19 08:08:11;;;;;;;3.92;1.50;;;24.70;99.90;;;;;;6231437;23;20031;-82
2023/07/19 08:10:40;;;;;;;4.25;1.60;;;24.90;99.90;;;;;;6233021;22;20039;-82
2023/07/19 08:13:07;;;;;;;5.82;1.70;;;25.00;99.90;;;;;;6234752;22;20027;-82
2023/07/19 08:15:32;;;;;;;6.15;1.98;;;25.40;99.10;;;;;;6230382;23;20008;-83
2023/07/19 08:17:58;;;;;;;6.47;1.70;;;25.70;98.20;;;;;;6234877;22;20019;-82
2023/07/19 08:20:24;;;;;;;6.15;1.85;;;26.00;95.40;;;;;;6233887;22;20058;-81
2023/07/19 08:22:50;;;;;;;9.15;1.67;;;26.40;93.30;;;;;;6233457;22;20024;-83
2023/07/19 08:25:18;;;;;;;7.03;1.70;;;26.40;93.00;;;;;;6231027;23;20011;-85
2023/07/19 08:27:44;;;;;;;4.22;1.42;;;26.50;90.90;;;;;;6233299;22;20031;-82
2023/07/19 08:30:15;;;;;;;6.35;1.77;;;26.30;91.90;;;;;;6231559;23;20038;-83
2023/07/19 08:32:47;;;;;;;4.75;1.23;;;26.50;92.10;;;;;;6232622;22;19996;-80
2023/07/19 08:35:14;;;;;;;5.72;1.45;;;26.80;90.80;;;;;;6231667;22;20008;-82
2023/07/19 08:37:42;;;;;;;3.22;1.50;;;27.00;87.10;;;;;;6232426;23;20516;-82
2023/07/19 08:40:09;;;;;;;2.95;1.23;;;27.60;87.40;;;;;;6234957;22;20314;-83
2023/07/19 08:42:35;;;;;;;10.05;1.40;;;28.40;79.80;;;;;;6235606;22;20030;-81
2023/07/19 08:45:02;;;;;;;8.40;1.30;;;28.90;72.80;;;;;;6232538;23;20020;-83
2023/07/19 08:47:29;;;;;;;6.68;1.20;;;30.10;70.60;;;;;;6234484;22;20007;-81
2023/07/19 08:49:56;;;;;;;2.35;1.00;;;32.60;63.00;;;;;;6232198;23;20053;-82
2023/07/19 08:52:22;;;;;;;3.08;1.00;;;35.30;53.90;;;;;;6234607;22;20004;-82
2023/07/19 08:54:47;;;;;;;2.05;0.90;;;37.70;47.80;;;;;;6232209;23;20073;-82
2023/07/19 08:57:13;;;;;;;3.08;0.77;;;39.60;42.30;;;;;;6233614;22;20075;-81
2023/07/19 08:59:39;;;;;;;1.90;0.98;;;41.40;40.50;;;;;;6231095;23;20004;-82
2023/07/19 09:02:05;;;;;;;1.83;0.90;;;42.60;38.40;;;;;;6232367;22;20093;-83
2023/07/19 09:04:32;;;;;;;2.20;0.82;;;42.70;34.80;;;;;;6231022;23;20012;-82
2023/07/19 09:07:03;;;;;;;1.95;0.95;;;41.00;35.40;;;;;;6231602;23;20506;-81
2023/07/19 09:09:28;;;;;;;1.73;0.80;;;38.30;37.90;;;;;;6234391;22;20007;-82
2023/07/19 09:11:54;;;;;;;2.75;1.05;;;35.60;39.70;;;;;;6234264;23;20369;-82
2023/07/19 09:14:34;;;;;;;2.67;1.25;;;33.60;44.20;;;;;;6236301;22;20027;-82
2023/07/19 09:17:00;;;;;;;2.70;1.07;;;31.40;47.50;;;;;;6237503;22;20000;-83
2023/07/19 09:19:26;;;;;;;2.85;1.17;;;29.70;50.90;;;;;;6236552;22;20012;-82
2023/07/19 09:21:51;;;;;;;4.22;1.40;;;28.20;54.40;;;;;;6234776;23;20066;-83
2023/07/19 09:24:17;;;;;;;2.70;1.40;;;27.30;58.50;;;;;;6236083;22;20011;-82
2023/07/19 09:26:52;;;;;;;4.75;1.52;;;26.20;62.70;;;;;;6235995;22;20004;-83
2023/07/19 09:29:22;;;;;;;1.85;1.10;;;25.60;70.60;;;;;;6235188;22;20494;-82
2023/07/19 09:31:56;;;;;;;4.60;1.50;;;25.00;83.40;;;;;;6235363;22;20344;-83
2023/07/19 09:34:34;;;;;;;4.35;1.48;;;25.20;88.30;;;;;;6233061;23;20023;-81
2023/07/19 09:37:01;;;;;;;4.25;1.50;;;25.60;86.10;;;;;;6234062;23;20011;-82
2023/07/19 09:39:29;;;;;;;2.55;1.20;;;26.40;79.10;;;;;;6233840;23;20442;-85
2023/07/19 09:41:55;;;;;;;4.55;1.25;;;27.40;75.10;;;;;;6232847;22;20118;-82
2023/07/19 09:44:21;;;;;;;2.75;1.40;;;28.20;69.90;;;;;;6231973;22;20012;-83
2023/07/19 09:46:48;;;;;;;4.97;1.17;;;28.30;67.60;;;;;;6231831;23;20020;-81
2023/07/19 09:49:14;;;;;;;3.13;1.20;;;28.70;66.70;;;;;;6233175;22;20019;-83
2023/07/19 09:51:43;;;;;;;3.20;1.05;;;29.60;62.70;;;;;;6232261;23;20008;-82
2023/07/19 09:54:11;;;;;;;2.93;0.90;;;30.70;60.90;;;;;;6232411;22;20393;-81
2023/07/19 09:56:38;;;;;;;2.35;1.10;;;31.70;54.40;;;;;;6232993;22;20004;-82
2023/07/19 09:59:29;;;;;;;4.65;1.38;;;31.60;53.60;;;;;;6230403;22;20000;-84
2023/07/19 10:01:55;;;;;;;13.55;2.03;;;30.70;53.90;;;;;;6232718;22;20016;-83
2023/07/19 10:04:24;;;;;;;4.18;1.33;;;29.50;56.00;;;;;;6230806;22;20505;-83
2023/07/19 10:07:09;;;;;;;2.85;1.10;;;27.90;59.60;;;;;;6232091;22;20039;-83
2023/07/19 10:09:38;;;;;;;2.67;1.20;;;26.60;65.40;;;;;;6231697;23;20662;-80
2023/07/19 10:12:16;;;;;;;3.30;1.30;;;25.60;70.50;;;;;;6233396;23;20023;-86
2023/07/19 10:15:12;;;;;;;2.97;1.30;;;25.70;74.30;;;;;;6234278;22;20066;-83
2023/07/19 10:17:42;;;;;;;2.50;1.27;;;25.80;70.80;;;;;;6220051;23;20004;-84
2023/07/19 10:20:14;;;;;;;2.40;0.80;;;26.10;71.90;;;;;;6235083;22;20008;-83
2023/07/19 10:22:52;;;;;;;15.38;1.70;;;26.40;71.40;;;;;;6232080;22;20071;-81
2023/07/19 10:25:29;;;;;;;9.18;1.50;;;26.80;69.10;;;;;;6229380;23;21202;-82
2023/07/19 10:27:58;;;;;;;3.95;0.93;;;27.00;67.80;;;;;;6229396;23;20081;-83
2023/07/19 10:30:57;;;;;;;2.75;0.93;;;27.50;68.20;;;;;;6232605;22;20700;-82
2023/07/19 10:33:28;;;;;;;2.38;1.00;;;30.10;64.70;;;;;;6181587;23;20008;-81
2023/07/19 10:35:56;;;;;;;1.70;0.80;;;33.10;55.70;;;;;;6232405;23;20012;-81
2023/07/19 10:38:23;;;;;;;1.92;0.60;;;35.30;48.00;;;;;;6235329;22;20498;-83
2023/07/19 10:41:05;;;;;;;1.95;0.82;;;37.70;40.80;;;;;;6233765;23;20352;-84
2023/07/19 10:43:33;;;;;;;1.88;0.50;;;39.40;37.60;;;;;;6235757;22;20023;-82
2023/07/19 10:46:00;;;;;;;1.70;0.70;;;40.80;38.40;;;;;;6232998;23;20024;-83
2023/07/19 10:48:27;;;;;;;1.30;0.60;;;40.40;34.70;;;;;;6233102;23;20478;-82
2023/07/19 10:51:00;;;;;;;1.00;0.70;;;38.20;37.30;;;;;;6235079;23;20018;-81
2023/07/19 10:53:26;;;;;;;2.75;0.77;;;36.00;39.80;;;;;;6234872;22;20004;-82
2023/07/19 10:56:02;;;;;;;2.67;0.70;;;34.20;43.40;;;;;;6234597;22;20008;-83
2023/07/19 10:58:30;;;;;;;1.50;0.80;;;33.10;45.10;;;;;;6233431;23;20048;-81
2023/07/19 11:00:56;;;;;;;2.50;0.75;;;32.50;47.40;;;;;;6235703;22;20074;-81
2023/07/19 11:03:26;;;;;;;2.05;0.75;;;33.20;46.40;;;;;;6234891;22;20434;-81
2023/07/19 11:05:53;;;;;;;1.42;0.63;;;33.90;43.40;;;;;;6236716;22;20055;-82
2023/07/19 11:08:23;;;;;;;1.73;0.70;;;33.80;43.60;;;;;;6236034;22;20031;-81
2023/07/19 11:10:49;;;;;;;2.15;0.90;;;33.80;46.60;;;;;;6232424;23;20004;-82
2023/07/19 11:13:17;;;;;;;3.20;0.82;;;33.50;43.10;;;;;;6233680;22;20079;-82
2023/07/19 11:15:48;;;;;;;2.03;0.90;;;33.20;43.00;;;;;;6235763;22;20004;-82
2023/07/19 11:18:42;;;;;;;3.10;0.93;;;33.80;46.40;;;;;;6235945;22;20083;-82
2023/07/19 11:21:08;;;;;;;2.63;1.10;;;35.10;44.90;;;;;;6233280;23;20077;-83
2023/07/19 11:23:41;;;;;;;2.53;1.08;;;35.90;44.30;;;;;;6235340;22;20003;-82
2023/07/19 11:26:13;;;;;;;3.78;1.08;;;37.30;42.10;;;;;;6234785;22;20075;-83
2023/07/19 11:28:52;;;;;;;1.70;1.08;;;39.20;40.20;;;;;;6233872;23;20015;-80
2023/07/19 11:31:40;;;;;;;2.55;0.95;;;39.50;35.50;;;;;;6237037;22;20057;-82
2023/07/19 11:34:13;;;;;;;2.42;1.15;;;38.80;38.50;;;;;;6235816;22;20066;-82
2023/07/19 11:36:44;;;;;;;2.22;1.20;;;38.00;37.60;;;;;;6235002;22;20011;-81
2023/07/19 11:39:17;;;;;;;1.98;1.30;;;36.90;42.00;;;;;;6234162;23;20027;-84
2023/07/19 11:41:44;;;;;;;3.95;1.30;;;35.40;42.70;;;;;;6237425;22;20043;-82
2023/07/19 11:44:17;;;;;;;3.83;1.50;;;34.00;43.50;;;;;;6235774;22;20033;-84
2023/07/19 11:46:43;;;;;;;2.80;1.40;;;32.70;46.30;;;;;;6237057;22;20440;-83
2023/07/19 11:49:09;;;;;;;3.15;1.40;;;31.10;45.20;;;;;;6235332;23;20677;-82
2023/07/19 11:51:36;;;;;;;6.88;1.77;;;29.50;50.00;;;;;;6235633;23;20111;-80
2023/07/19 11:54:01;;;;;;;4.30;1.67;;;28.10;54.20;;;;;;6236396;23;20150;-83
2023/07/19 11:56:28;;;;;;;2.55;1.30;;;26.90;56.80;;;;;;6235103;23;20003;-83
2023/07/19 11:58:55;;;;;;;5.45;1.90;;;25.60;62.70;;;;;;6236057;22;20000;-81
2023/07/19 12:01:21;;;;;;;5.40;1.70;;;25.10;78.30;;;;;;6233851;22;20012;-82
2023/07/19 12:03:47;;;;;;;6.97;1.90;;;24.80;87.70;;;;;;6233801;23;20008;-84
2023/07/19 12:06:14;;;;;;;9.43;1.67;;;25.40;92.90;;;;;;6233923;23;20023;-82
2023/07/19 12:08:40;;;;;;;3.80;1.48;;;26.90;93.70;;;;;;6235960;22;20397;-82
2023/07/19 12:11:07;;;;;;;6.25;1.50;;;28.40;77.50;;;;;;6234984;23;20008;-82
2023/07/19 12:13:33;;;;;;;4.28;1.48;;;29.20;75.40;;;;;;6236314;22;20012;-82
2023/07/19 12:15:59;;;;;;;5.50;1.50;;;29.10;70.10;;;;;;6234700;23;20095;-83
2023/07/19 12:18:26;;;;;;;3.70;1.60;;;27.90;68.70;;;;;;6234785;23;20475;-81
2023/07/19 12:20:51;;;;;;;3.30;1.25;;;28.20;77.40;;;;;;6232761;23;20020;-83
2023/07/19 12:23:17;;;;;;;3.97;1.40;;;28.10;72.80;;;;;;6235144;22;20087;-83
2023/07/19 12:25:43;;;;;;;6.90;1.60;;;28.10;72.00;;;;;;6231981;23;20047;-82
2023/07/19 12:28:08;;;;;;;7.15;1.40;;;28.10;70.10;;;;;;6234048;22;20736;-82
2023/07/19 12:30:34;;;;;;;7.00;1.48;;;28.80;75.80;;;;;;6235025;22;20091;-80
2023/07/19 12:33:01;;;;;;;3.05;1.75;;;28.70;70.10;;;;;;6233561;22;20019;-82
2023/07/19 12:35:26;;;;;;;5.15;1.50;;;28.20;71.70;;;;;;6233507;23;20035;-83
2023/07/19 12:37:52;;;;;;;5.85;1.73;;;28.10;70.60;;;;;;6232694;23;20009;-82
2023/07/19 12:40:18;;;;;;;4.47;1.90;;;27.70;73.40;;;;;;6235351;22;20024;-83
2023/07/19 12:42:43;;;;;;;4.45;1.83;;;27.20;75.90;;;;;;6232160;23;20083;-83
2023/07/19 12:45:10;;;;;;;5.57;1.80;;;26.70;78.00;;;;;;6233310;22;20040;-84